Algodones, NM

6:51 AM MDT on August 27, 2014 (GMT -0600)
Los Alamos | Change Station
CLOSE
Current Station
Airport
Location: Los Alamos,
Elevation: 7172 ft
Nearby Weather Stations

Elev 7172 ft 35.88 °N, 106.27 °W | Updated 16 minutes ago

Clear
Clear
54 °F
Feels Like 54 °F
N
7
Wind Variable Wind from South

Today
High -- | Low -- °F
--% Chance of Precip.
Yesterday
High -- | Low -- °F
Precip. -- in
6:34 AM 7:39 PM
Waxing Crescent, 3% visible
Pressure 30.37 in
Visibility 10.0 miles
Clouds Clear
Dew Point 54 °F
Humidity 100%
Rainfall 0.45 in
Snow Depth Not available.
UV 0 out of 12
Pollen 4.30 out of 12
Air Quality Not available.
Flu Activity Not available.
METAR KLAM 271235Z AUTO 18006KT 10SM CLR 12/12 A3037 RMK AO2 T01230123

More Conditions Fewer Conditions

Pressure 30.37 in
Visibility 10.0 miles
Clouds Clear
Dew Point 54 °F
Humidity 100%
Rainfall 0.45 in
Snow Depth Not available.
UV 0 out of 12
Pollen 4.30 out of 12
Air Quality Not available.
Flu Activity Not available.
METAR KLAM 271235Z AUTO 18006KT 10SM CLR 12/12 A3037 RMK AO2 T01230123

More Conditions Fewer Conditions

10-Day Weather Forecast

Almanac

Astronomy

Aug. 27, 2014 Rise Set
Actual Time 6:34 AM MDT 7:39 PM MDT
Civil Twilight 6:08 AM MDT 8:05 PM MDT
Nautical Twilight 5:37 AM MDT 8:36 PM MDT
Astronomical Twilight 5:04 AM MDT 9:09 PM MDT
Moon 8:27 AM MDT 8:40 PM MDT
Length of Visible Light 13h 57m
Length of Day
13h 05m
Tomorrow will be 2m 5s shorter.
Waxing Crescent, 3% of the Moon is Illuminated
Today
Waxing Crescent
Sep 2
First Quarter
Sep 8
Full
Sep 15
Last Quarter
Sep 24
New

Today's Extremes

State Highs State Lows

Community

WunderPhotos

Upload Photos

1,747,676 photos uploaded!

Nearby

Snow Depth

Station Depth Elevation
Quemazon 1 in 9500 ft
Senorita Divide #2 0 in 8600 ft
Santa Fe 0 in 11445 ft
Wesner Springs 1 in 11120 ft
Gallegos Peak 1 in 9800 ft

Earthquake Activity

City Distance Mag. Time & Date
No recent earthquake activity has been reported nearby.
Minimum magnitude displayed is 2.5.

Coastal Water Temperatures

Place Temperature
No Stations Reporting

Nearby Weather Stations